Timeline UpdatesTrip UpdatesNews PostsPvt Posts♥♥Travel TipsAdmin PostsConv PostsFollowed PostsChat RequestsBlog PostsPNR Posts

Disclaimer
Search
 
 
Thu Oct 23, 2014 15:37:25 ISTHomeTrainsΣChainsAtlasPNRForumGalleryNewsFAQTripsMembersLoginFeedback
No Recent News for this Train
Other Trains in the News **new
Latest...
Cancelled from 14/10/14-19/10/14 #1245502***Temporary Stop at Chaube from 1/10/14-5/11/14 Arr:0847 Dep:0849 #1232425.
Wed Oct 15, 2014 (09:21PM)
⇐ Return Journey: Train# 13151

13152/Jammu Tawi - Kolkata Express

Time-Table HAS CHANGED.
Oct 15 (9:21PM)
Change Departure Station:
Change Arrival Station:
Post a Train Travel TipPost a Train Travel Tip **new
Post a Comment/Question/Picture/VideoPost a Comment/Question/Picture/Video
Pantry/Catering
✓ Pantry Car Avbl
✓ Catering Avbl
RSA - Rake Sharing
No Rake Sharing
Rake/Coach Composition
LOCO-SLR-GEN-GEN-MILITARY-B1-A1-PC-S11-S10-S9-S8-S7-S6-S5-S4-S3-S2-S1-GEN-SLR-HCPV
Loco
LDH WDM 3A (JAT - MGS);;; MGS WAP 4 (MGS...
Read more...
- KOAA)
News    PNR    Forum    Time-Table    Availability    Fare Chart    Map    Arr/Dep History    Trips    Gallery    ΣChains    X/O    Timeline    
Travel Time: 22h 10m    45 halts    Distance: 983 km    Avg Speed: 44 km/hr
Type: Mail/Express
Zone: ER/Eastern
Departs @ 18:55 (Avg 30m late)
Platform# 1
SMTWTFS
Jammu Tawi/JAT 
Arrives @ 17:05 +1 night (Avg 41m late)
Platform# 3
SMTWTFS
Lucknow Charbagh NR/LKO 

45 halts. 162 intermediate Stations between Jammu Tawi and Lucknow Charbagh NR

Show ALL intermediate Stations  Show Old Time-Table

#TrkCodeStation NameX/OArrivesAvgDepartsAvgHaltPFDay#KmSpeedElevZoneAddress
1/--/JATJammu Tawi (3)»  -18:55+30110.067337mNRJammu 180002, Jammu and Kashmir
2/--/VJPJVijaypur Jammu (2)  19:13 19:14+4319:15+452 1m2121.353353mNRdistt. samba, Jammu and Kashmir
3/--/SMBXSamba (2)  19:28+5119:30+572m1132.759365mNRDist. Samba, Jammu and Kashmir
4/--/HRNRHira Nagar (2)  19:44 19:45+5919:46+1:142 1m2147.553380mNRHiranagar, Jammu and Kashmir
5/--/CKDLChakdayala (2)X  19:49 19:50-19:51-2 1m2151.023396mNRdistt. kathua, Jammu and Kashmir
6/--/KTHUKathua (2)  20:57+4720:59+492m2176.348396mNRdistt. kathua, Jammu and Kashmir
7/--/SJNPSujanpur (3)O  21:18+5121:20+592m2191.412335mNRSujanpur, Punjab
8/--/PTKCPathankot Cantt (3)O  22:00+4422:05+445m1199.457328mNRPathankot By Pass Ph:0186-2251594, Punjab
9/--/MEXMukerian (3)  22:47+3522:49+372m11139.356257mNRMukerian distt. hosiharpur, Punjab
10/--/DZADasuya (2)  23:05+3723:07+412m11154.371251mNRDasuya distt. hoshiarpur, Punjab
11/--/TDOTanda Urmar (3)  23:20+4223:22+442m21169.765239mNRUrmar Tanda, Punjab
12/--/JRCJalandhar Cantt. Junction (3)XO  00:01+4400:05+494m32211.943239mNRNear Rama Mandi, Punjab
13/==/PGWPhagwara Junction (3)X  00:28+4200:30+442m12228.229245mNRPhagwara, Punjab
14/==/LDHLudhiana Junction (7)X  01:45+1801:55+2510m12263.947246mNRLudhiana 141001, Punjab
15/==/KNNKhanna (3)  02:50+1702:52+182m22306.767269mNRNH 1, Punjab
16/==/SIRSirhind Junction (3)X  03:08+1803:10+182m22324.688271mNRSirhind, Punjab
17/==/RPJRajpura Junction (3)XO  03:27+2303:29+252m22349.447272mNRNH-1, Punjab
18/==/UBCAmbala City (3)XO  03:55+1903:57+192m12369.920273mNRNH-1, Haryana
19/==/UMBAmbala Cantt. Junction (7)XO  04:20+1404:30+1410m12377.579278mNRAmbala 133001, Haryana
20/==/JUDWJagadhri Workshop (2)  05:05+1805:07+182m12423.527280mNRRailway Workshop Road, Haryana
21/==/JUDYamunanagar-Jagadhri (3)X  05:18+1505:20+162m22428.540275mNRYamunanagar, Haryana
22/==/SRESaharanpur Junction (6)X  06:10 06:05+406:20 06:15+410m32458.665276mNRSaharanpur, Uttar Pradesh
23/==/RKRoorkee (3)X  06:50 06:47+2106:52+222 5m12493.459264mNRRoorkee - 247667, Uttarakhand
24/==/LRJLaksar Junction (4)  07:15 07:10+2507:20 07:15+255m22511.186238mNRLaksar, Uttarakhand
25/==/RSIRaisi  07:27 07:23+2807:29 07:25+282m--2522.650231mNRLaksar, Uttarakhand
26/==/CNKChandok (2)  07:46 07:40+2807:48 07:42+292m22535.281257mNRChandok, Uttar Pradesh
27|--|MZMMuzzampur Narayan (3)  07:56 07:51+2907:58 07:53+302m12547.447258mNRJunction Point - NBD/LRJ/BJO, Uttar Pradesh
28|--|NBDNajibabad Junction (3)  08:18 08:07+2808:23 08:12+315m12558.471269mNRNajibabad, Uttar Pradesh
29/==/NGGNagina (3)X  08:40 08:31+3908:42 08:33+402m--2580.963247mNRNagina, Uttar Pradesh
30/==/DPRDhampurX  08:57 08:49+4308:59 08:51+442m--2597.759236mNRDhampur, Uttar Pradesh
31/==/SEOSeoharaX  09:12 09:05+4409:14 09:07+442m--2611.462224mNRSeohara, Uttar Pradesh
32/==/KNTKanthXO  09:28 09:23+4409:30 09:25+442m--2628.025221mNRKanth, Uttar Pradesh
33/==/MBMoradabad Junction (7)X  10:35+1510:45+2010m12657.455201mNRMoradabad, Uttar Pradesh
34/==/RMURampur Junction (3)  11:15+2311:17 11:20+242 5m--2684.773190mNRRampur, Uttar Pradesh
35/==/MILMilakX  11:42 11:39+2511:44 11:41+262m--2707.871180mNRMilak, Uttar Pradesh
36/==/CBJClutterbuckGanj12:09 12:08+2812:10+291 2m--2739.831172mNRBareilly, Uttar Pradesh
37/==/BEBareilly Junction (4)  12:15 12:25+2812:20 12:30+305m--2747.770174mNRBareilly, Uttar Pradesh
38/==/PMRPitambarpur  12:46 12:47+3512:48 12:49+352m--2767.665171mNRPitambarpur, Uttar Pradesh
39/==/TLHTilharX  13:19+3613:21+382m--2800.042163mNRTilhar, Uttar Pradesh
40/==/SPNShahjahanpur Junction (3)X  13:45 13:47+3213:50 13:52+335m--2818.240156mNRShahjahanpur, Uttar Pradesh
41/=-|ROZARoza Junction (4)  13:58 14:03+3414:00 14:08+332 5m--2825.564156mNRShahjahanpur, Uttar Pradesh
42/==/AJIAnjhi Shahabad  14:18 14:30+3814:20 14:32+392m--2848.969148mNRAnjhi Shahabad, Uttar Pradesh
43/==/HRIHardoi (5)  14:48 15:00+4514:50 15:05+482 5m32881.179146mNRHardoi, Uttar Pradesh
44/==/BLMBalamau Junction (4)X  15:21 15:30+4915:23 15:32+492m--2914.168139mNRBalamau, Uttar Pradesh
45/==/SANSandila (3)X  15:43 15:50+5015:45 15:52+512m--2934.456132mNRSandila, Uttar Pradesh
46/==/MLDMalihabad  16:18+4716:20+482m--2958.732130mNRMalihabad, Uttar Pradesh
47/==/LKOLucknow Charbagh NR (9)•X  17:05+4117:20+4215m32982.939123mNR226004, Uttar Pradesh
48/==/BBKBarabanki Junction (4)X  18:04+4518:06+462m--21011.540122mNRPin-225001, Uttar Pradesh
49|--|SGJSafdarGanjX  18:30 18:33+4418:32 18:35+452m--21029.754116mNRFaizabad Rd, Uttar Pradesh
50|--|DYDDaryabad  18:46 18:57+4518:48 18:59+462m--21049.551116mNRFaizabad Rd, Uttar Pradesh
51|--|RDLRudauli (2)  19:06 19:26+4819:08 19:28+502m--21072.638112mNRRudauli, Uttar Pradesh
52|--|SLWSohwalX  19:45 20:04+4419:47 20:06+492m--21095.520107mNRFaizabad Rd, Uttar Pradesh
53|--|FDFaizabad Junction (5)X  20:20 20:52+3520:25 20:57+425m--21110.814104mNRFaizabad, Uttar Pradesh
54|--|ACNDAcharya Narendra Dev Nagar  20:34 21:06+4620:36 21:08+472m--21112.930104mNRFaizabad, Uttar Pradesh
55|--|AYAyodhya Junction (3)  20:51 21:17+4620:53 21:18+472 1m221117.45098mNRAyodhya, Uttar Pradesh
56|--|GGJGoshainGanj (3)  21:20 21:56+4621:22 21:58+462m--21149.26398mNRGoshainganj, Uttar Pradesh
57|--|ABPAkbarpur Junction (2)  21:49 22:19+4621:51 22:21+472m121171.47292mNRAkbarpur, Uttar Pradesh
58|--|MLPRMalipur (2)  22:06 22:37+5122:08 22:38+522 1m--21190.55692mNRMalipur, Uttar Pradesh
59|--|SHGShahganj Junction (4)  22:32 23:05+5422:36 23:07+554 2m--21215.55390mNRShahganj, Uttar Pradesh
60|--|JNUJaunpur Junction (5)X  23:07 23:45+5223:09 23:47+542m--21248.83783mNRJaunpur, Uttar Pradesh
61/==/BSBVaranasi Junction (9)X  01:20+2701:30+2810m--31306.41582mNRVaranasi 221002, Uttar Pradesh
62/==/KEIKashi (3)  01:51+2101:53+232m--31311.81485mNRVaranasi, Uttar Pradesh
63/==/MGSMughal Sarai Junction (8)XO  02:40+1503:00+2020m131322.75883mECRDistt: Chandauli Pin 232101, Uttar Pradesh
64/==/CDMRChandauli MajhwarX  03:18+2903:20+292m--31340.27279mECRNational Highway 2, Uttar Pradesh
65/==/SYJSaidraja  03:27+3003:29+302m--31348.58280mECRSaiyedraja, Uttar Pradesh
66/==/BBUBhabua Road (4)  03:50+3003:52+302m--31377.37980mECR06187-222222, Bihar
67/==/KTQKudra (2)  04:09+3104:11+312m--31399.67692mECRKudra, Bihar
68/==/SSMSasaram Junction (4)X  04:31+3504:33+352m231424.959111mECR06184-222051, Bihar
69/==/DOSDehri On Sone (6)  04:51+3304:53+342m--31442.557114mECRRohtas(06184-253154), Bihar
70/==/SEBSon Nagar Junction (4)X  04:59+3705:01+372m--31448.365110mECRBarun, Bihar
71/==/AUBRAnugraha Narayan Road (4)X  05:11+3805:13+392m231459.175104mECR06186-285271, Bihar
72/==/JHNJakhim  05:29+3905:31+392m--31479.25493mECRbel Rd, Bihar
73/==/RFJRafiGanj (4)X  05:43+3705:45+372m--31490.074102mECRRafiganj, Bihar
74/==/GRRUGuraruX  05:57 05:58+3805:59+392 1m--31506.137114mECRGuraru, Bihar
75/==/GAYAGaya Junction (9)  06:46 06:34+2706:51 06:39+285m231527.639117mECR0631-2220283, Bihar
76/==/TKNTankuppa  07:10+2507:12+272m--31547.767127mECRState Highway 70, Bihar
77/==/PRPPaharpur  07:23+2607:25+282m--31560.087150mECRGaya, Bihar
78/==/GAPGurpa (4)  07:33+2907:35+302m--31571.658192mECRLodhwe, Bihar
79/==/GJDGujhandi (4)  07:58+3108:00+332m--31594.066386mECRNational Highway 31, Jharkhand
80/==/KQRKoderma Junction (7)X  08:10 08:09+3608:12+362 3m--31604.075399mECR06534-222410 Koderma, Jharkhand
81/==/PSBParsabad (4)  08:33+3608:35+372m--31630.377346mECRNational Highway 2, Jharkhand
82/==/HZDHazaribagh Road (4)  08:52+3508:54+362m--31652.374330mECRHazaribagh, Jharkhand
83/==/PNMEParasnath (5)X  09:14 09:16+3909:16 09:21+382 5m--31679.472282mECRGiridih 06532-233419, Jharkhand
84/==/GMONetaji SC Bose Gomoh Junction (6)  09:36+3909:46+3810m--31697.443239mECRGomoh, Jharkhand
85/==/DHNDhanbad Junction (9)  10:25 10:28+2810:32 10:35+287m231727.286235mECR2319801. Div. HQ ECR, Jharkhand
86/==/KMMEKumardubi (2)  10:59 11:02+4611:01 11:04+452m--31765.750135mERDhanbad - 828203(06540-222077), Jharkhand
87/==/BRRBarakar (2)X  11:04 11:07+4711:06 11:09+472m--31768.239129mERDist. Bardhaman, West Bengal
88/==/ULTKulti (3)  11:11 11:14+4711:13 11:16+482m--31771.544148mERdist - bardhaman, West Bengal
89/==/ASNAsansol Junction (7)X  11:34 11:35+4511:49 11:50+4415m--31785.472113mERDist - Bardhaman, West Bengal
90/==/RNGRaniGanj (4)  12:04 12:05+5012:06 12:07+502m--31803.54092mERRaniganj, West Bengal
91/==/UDLAndal Junction (6)O  12:17 12:18+4712:19 12:20+462m--31810.84486mERAndal, West Bengal
92/==/DGRDurgapur (5)  12:43+3612:45+372m431827.99471mERDurgapur, West Bengal
93/==/PANPanagarh (4)X  12:55+4212:57+422m--31843.57070mERKaksa, West Bengal
94/==/BWNBarddhaman Junction (8)X  13:38+3913:43+405m--31891.47334mERDist - Barddhaman, West Bengal
95/==/KQUKamarkundu (5)  14:34+2614:36+262m--31953.05813mERDist - Hooghly, West Bengal
96/==/DAKEDakhineswar (2)  15:04-15:06-2m231980.11210mERDist - 24 paraganas ( North ), West Bengal
97/==/KOAAKolkata Chitpur (5)  15:50 15:55+17-331990.1-6mERKolkata, West Bengal
Scroll to Top
Scroll to Bottom